createdAt,value
2022-11-15T00:02:02.362Z,56.30
2022-11-15T00:04:48.707Z,49.60
2022-11-15T00:07:54.698Z,70.63
2022-11-15T00:10:41.899Z,73.07
2022-11-15T00:13:28.691Z,105.40
2022-11-15T00:16:15.083Z,100.85
2022-11-15T00:19:00.912Z,63.78
2022-11-15T00:21:49.941Z,83.53
2022-11-15T00:24:36.193Z,119.45
2022-11-15T00:27:22.239Z,118.07
2022-11-15T00:30:08.856Z,134.63
2022-11-15T00:32:57.365Z,112.47
2022-11-15T00:35:43.624Z,108.05
2022-11-15T00:38:34.608Z,157.02
2022-11-15T00:41:20.693Z,112.50
2022-11-15T00:44:07.338Z,130.57
2022-11-15T00:46:55.888Z,104.88
2022-11-15T00:49:43.811Z,108.43
2022-11-15T00:52:30.455Z,119.30
2022-11-15T00:55:17.489Z,112.32
2022-11-15T00:58:03.700Z,114.88
2022-11-15T01:00:51.314Z,105.38
2022-11-15T01:03:38.553Z,97.97
2022-11-15T01:06:24.868Z,114.82
2022-11-15T01:09:12.106Z,104.65
2022-11-15T01:11:58.522Z,115.93
2022-11-15T01:14:45.391Z,112.82
2022-11-15T01:17:31.797Z,121.25
2022-11-15T01:20:18.140Z,98.63
2022-11-15T01:23:04.835Z,116.68
2022-11-15T01:25:51.212Z,96.25
2022-11-15T01:28:38.576Z,106.38
2022-11-15T01:31:24.611Z,99.95
2022-11-15T01:34:10.778Z,99.68
2022-11-15T01:37:02.588Z,93.22
2022-11-15T01:39:49.037Z,103.88
2022-11-15T01:42:36.039Z,97.30
2022-11-15T01:45:22.486Z,84.82
2022-11-15T01:48:09.088Z,91.10
2022-11-15T01:50:55.132Z,85.45
2022-11-15T01:53:43.059Z,85.82
2022-11-15T01:56:30.700Z,91.03
2022-11-15T01:59:16.688Z,96.97
2022-11-15T02:02:03.782Z,105.88
2022-11-15T02:04:50.092Z,103.18
2022-11-15T02:07:36.673Z,89.78
2022-11-15T02:10:25.146Z,95.55
2022-11-15T02:13:11.583Z,100.40
2022-11-15T02:16:27.027Z,93.35
2022-11-15T02:19:34.938Z,82.43
2022-11-15T02:22:44.729Z,87.55
2022-11-15T02:25:52.651Z,85.40
2022-11-15T02:28:46.948Z,87.28
2022-11-15T02:31:47.999Z,87.63
2022-11-15T02:35:13.444Z,89.95
2022-11-15T02:38:28.193Z,84.70
2022-11-15T02:41:18.023Z,77.90
2022-11-15T02:44:09.175Z,88.55
2022-11-15T02:47:14.984Z,82.60
2022-11-15T02:50:08.347Z,72.63
2022-11-15T02:52:56.217Z,76.88
2022-11-15T02:55:47.404Z,75.22
2022-11-15T02:59:04.252Z,78.55
2022-11-15T03:01:53.704Z,81.50
2022-11-15T03:04:50.663Z,84.10
2022-11-15T03:07:42.112Z,79.53
2022-11-15T03:10:37.456Z,66.55
2022-11-15T03:13:28.179Z,74.10
2022-11-15T03:16:27.646Z,81.68
2022-11-15T03:19:49.457Z,78.70
2022-11-15T03:22:40.445Z,91.47
2022-11-15T03:25:27.180Z,103.78
2022-11-15T03:28:16.193Z,97.72
2022-11-15T03:31:02.793Z,158.93
2022-11-15T03:33:50.059Z,211.07
2022-11-15T03:36:35.947Z,206.50
2022-11-15T03:39:21.993Z,478.98
2022-11-15T03:42:13.907Z,412.75
2022-11-15T03:45:04.383Z,745.83
2022-11-15T03:47:53.134Z,464.15
2022-11-15T03:50:39.215Z,466.38
2022-11-15T03:53:25.564Z,508.25
2022-11-15T03:56:11.725Z,520.80
2022-11-15T03:58:57.906Z,473.77
2022-11-15T04:01:46.149Z,430.02
2022-11-15T04:04:32.232Z,436.10
2022-11-15T04:07:18.657Z,469.40
2022-11-15T04:10:06.703Z,415.02
2022-11-15T04:12:52.918Z,495.05
2022-11-15T04:15:40.163Z,374.50
2022-11-15T04:18:26.825Z,458.40
2022-11-15T04:21:31.670Z,382.95
2022-11-15T04:24:18.872Z,307.05
2022-11-15T04:27:04.773Z,263.10
2022-11-15T04:29:51.232Z,210.00
2022-11-15T04:32:37.224Z,163.15
2022-11-15T04:35:23.626Z,133.77
2022-11-15T04:38:10.283Z,173.93
2022-11-15T04:40:56.197Z,142.82
2022-11-15T04:43:45.059Z,163.43
2022-11-15T04:46:31.241Z,98.95
2022-11-15T04:49:17.020Z,149.38
2022-11-15T04:52:03.369Z,117.13
2022-11-15T04:54:49.745Z,123.32
2022-11-15T04:57:37.469Z,94.55
2022-11-15T05:00:23.449Z,138.20
2022-11-15T05:03:28.912Z,110.53
2022-11-15T05:06:15.135Z,112.15
2022-11-15T05:09:01.954Z,92.45
2022-11-15T05:11:48.488Z,93.07
2022-11-15T05:14:34.717Z,116.43
2022-11-15T05:17:21.805Z,92.38
2022-11-15T05:20:08.515Z,104.03
2022-11-15T05:22:55.449Z,101.90
2022-11-15T05:25:41.747Z,105.53
2022-11-15T05:28:28.357Z,97.20
2022-11-15T05:31:16.068Z,96.45
2022-11-15T05:34:02.513Z,97.95
2022-11-15T05:36:48.898Z,95.47
2022-11-15T05:39:36.207Z,83.78
2022-11-15T05:42:22.419Z,93.25
2022-11-15T05:45:09.057Z,83.57
2022-11-15T05:47:55.465Z,510.45
2022-11-15T05:50:43.224Z,713.80
2022-11-15T05:53:29.724Z,279.17
2022-11-15T05:56:34.702Z,324.25
2022-11-15T05:59:20.638Z,268.40
2022-11-15T06:02:07.104Z,545.47
2022-11-15T06:04:53.314Z,316.20
2022-11-15T06:07:39.617Z,327.23
2022-11-15T06:10:25.703Z,252.13
2022-11-15T06:13:17.147Z,228.77
2022-11-15T06:16:03.506Z,255.00
2022-11-15T06:18:52.054Z,172.43
2022-11-15T06:21:38.325Z,176.02
2022-11-15T06:24:24.949Z,150.32
2022-11-15T06:27:12.340Z,116.05
2022-11-15T06:29:58.685Z,66.18
2022-11-15T06:32:44.766Z,63.58
2022-11-15T06:35:31.172Z,49.20
2022-11-15T06:38:17.766Z,44.83
2022-11-15T06:41:05.562Z,47.17
2022-11-15T06:43:51.582Z,53.95
2022-11-15T06:46:37.590Z,53.60
2022-11-15T06:49:23.877Z,49.47
2022-11-15T06:52:09.986Z,57.25
2022-11-15T06:54:56.400Z,53.90
2022-11-15T06:57:52.332Z,48.97
2022-11-15T07:00:39.628Z,55.90
2022-11-15T07:03:26.079Z,58.97
2022-11-15T07:06:12.520Z,50.47
2022-11-15T07:08:58.871Z,73.13
2022-11-15T07:11:45.044Z,83.00
2022-11-15T07:14:32.645Z,91.25
2022-11-15T07:17:19.885Z,98.43
2022-11-15T07:20:06.596Z,98.28
2022-11-15T07:22:52.709Z,88.88
2022-11-15T07:25:40.685Z,95.00
2022-11-15T07:28:27.959Z,87.80
2022-11-15T07:31:14.372Z,98.88
2022-11-15T07:34:01.208Z,99.90
2022-11-15T07:36:47.590Z,106.13
2022-11-15T07:39:33.918Z,100.32
2022-11-15T07:42:38.271Z,91.20
2022-11-15T07:45:24.681Z,91.47
2022-11-15T07:48:10.449Z,86.97
2022-11-15T07:50:56.774Z,87.50
2022-11-15T07:53:43.858Z,92.85
2022-11-15T07:56:30.149Z,89.18
2022-11-15T07:59:16.732Z,81.40
2022-11-15T08:02:03.202Z,58.25
2022-11-15T08:04:49.612Z,61.22
2022-11-15T08:07:41.304Z,64.20
2022-11-15T08:10:28.152Z,61.30
2022-11-15T08:13:14.280Z,64.15
2022-11-15T08:16:02.021Z,55.67
2022-11-15T08:18:48.087Z,54.20
2022-11-15T08:21:46.529Z,54.28
2022-11-15T08:27:23.538Z,57.38
2022-11-15T08:30:10.044Z,48.60
2022-11-15T08:32:57.621Z,48.95
2022-11-15T08:35:43.876Z,43.85
2022-11-15T08:38:31.002Z,35.13
2022-11-15T08:41:25.373Z,53.92
2022-11-15T08:44:11.473Z,45.33
2022-11-15T08:46:57.802Z,49.88
2022-11-15T08:49:43.830Z,52.40
2022-11-15T08:52:30.111Z,34.63
2022-11-15T08:55:17.628Z,25.88
2022-11-15T08:58:05.111Z,27.98
2022-11-15T09:00:53.015Z,31.23
2022-11-15T09:03:41.614Z,52.15
2022-11-15T09:06:28.377Z,23.83
2022-11-15T09:09:14.342Z,29.48
2022-11-15T09:12:02.756Z,30.80
2022-11-15T09:14:50.019Z,24.13
2022-11-15T09:17:36.320Z,45.70
2022-11-15T09:20:23.049Z,28.33
2022-11-15T09:23:09.353Z,23.33
2022-11-15T09:26:00.129Z,19.92
2022-11-15T09:28:47.501Z,24.85
2022-11-15T09:31:33.846Z,19.15
2022-11-15T09:34:22.213Z,19.25
2022-11-15T09:37:08.467Z,16.35
2022-11-15T09:39:54.925Z,18.50
2022-11-15T09:43:23.434Z,22.08
2022-11-15T09:46:24.170Z,22.13
2022-11-15T09:49:21.146Z,20.27
2022-11-15T09:52:03.785Z,23.13
2022-11-15T09:54:55.490Z,22.88
2022-11-15T09:57:50.517Z,20.73
2022-11-15T10:03:18.360Z,18.58
2022-11-15T10:05:50.061Z,19.80
2022-11-15T10:08:32.618Z,19.98
2022-11-15T10:11:39.495Z,15.85
2022-11-15T10:14:15.676Z,18.92
2022-11-15T10:17:18.423Z,21.33
2022-11-15T10:20:07.180Z,15.32
2022-11-15T10:22:53.095Z,12.32
2022-11-15T10:25:25.157Z,14.57
2022-11-15T10:28:22.798Z,13.95
2022-11-15T10:31:02.068Z,15.32
2022-11-15T10:33:41.264Z,11.95
2022-11-15T10:36:18.900Z,11.52
2022-11-15T10:38:49.871Z,15.63
2022-11-15T10:41:32.439Z,21.90
2022-11-15T10:44:12.378Z,15.95
2022-11-15T10:46:48.874Z,18.10
2022-11-15T10:49:21.376Z,14.15
2022-11-15T10:51:56.901Z,24.55
2022-11-15T10:54:50.844Z,36.35
2022-11-15T10:57:23.759Z,12.93
2022-11-15T10:59:54.049Z,16.88
2022-11-15T11:02:54.089Z,11.13
2022-11-15T11:05:41.220Z,27.83
2022-11-15T11:08:12.493Z,30.45
2022-11-15T11:11:01.564Z,22.67
2022-11-15T11:13:33.086Z,28.00
2022-11-15T11:16:16.300Z,20.15
2022-11-15T11:19:02.584Z,17.95
2022-11-15T11:21:52.706Z,20.95
2022-11-15T11:24:29.274Z,16.25
2022-11-15T11:27:15.311Z,24.63
2022-11-15T11:30:10.880Z,34.22
2022-11-15T11:33:04.709Z,16.60
2022-11-15T11:35:51.914Z,20.17
2022-11-15T11:38:34.880Z,24.95
2022-11-15T11:41:14.904Z,28.50
2022-11-15T11:44:02.811Z,28.73
2022-11-15T11:46:57.774Z,25.25
2022-11-15T11:49:32.456Z,17.60
2022-11-15T11:52:09.788Z,12.95
2022-11-15T11:54:49.378Z,24.58
2022-11-15T11:57:39.650Z,11.75
2022-11-15T12:00:23.659Z,23.27
2022-11-15T12:03:26.498Z,16.30
2022-11-15T12:06:21.282Z,15.15
2022-11-15T12:08:57.755Z,14.07
2022-11-15T12:11:30.362Z,13.68
2022-11-15T12:14:00.940Z,15.50
2022-11-15T12:16:32.291Z,14.48
2022-11-15T12:19:05.788Z,16.35
2022-11-15T12:21:53.543Z,9.40
2022-11-15T12:24:36.358Z,13.57
2022-11-15T12:27:10.013Z,10.68
2022-11-15T12:29:44.569Z,11.38
2022-11-15T12:32:26.839Z,20.70
2022-11-15T12:34:54.433Z,19.77
2022-11-15T12:37:38.803Z,11.65
2022-11-15T12:40:22.151Z,10.88
2022-11-15T12:43:15.105Z,12.95
2022-11-15T12:45:44.375Z,16.58
2022-11-15T12:48:18.340Z,11.25
2022-11-15T12:50:52.092Z,14.13
2022-11-15T12:53:25.830Z,23.00
2022-11-15T12:56:05.596Z,14.93
2022-11-15T12:58:47.639Z,11.73
2022-11-15T13:01:33.788Z,34.55
2022-11-15T13:04:19.883Z,19.10
2022-11-15T13:06:50.879Z,17.40
2022-11-15T13:12:15.514Z,26.92
2022-11-15T13:14:52.463Z,28.20
2022-11-15T13:17:20.040Z,15.85
2022-11-15T13:19:49.193Z,16.63
2022-11-15T13:22:35.256Z,16.77
2022-11-15T13:25:02.865Z,15.70
2022-11-15T13:27:31.180Z,19.27
2022-11-15T13:29:58.717Z,17.42
2022-11-15T13:32:26.780Z,17.63
2022-11-15T13:34:54.419Z,27.35
2022-11-15T13:37:21.990Z,21.42
2022-11-15T13:39:50.006Z,18.05
2022-11-15T13:42:20.982Z,26.70
2022-11-15T13:45:00.027Z,20.95
2022-11-15T13:47:28.791Z,23.70
2022-11-15T13:50:00.230Z,23.77
2022-11-15T13:52:34.349Z,18.48
2022-11-15T13:55:14.431Z,22.38
2022-11-15T13:57:46.732Z,21.98
2022-11-15T14:00:29.582Z,31.80
2022-11-15T14:02:57.366Z,41.05
2022-11-15T14:05:25.545Z,44.78
2022-11-15T14:07:59.212Z,39.60
2022-11-15T14:10:35.546Z,38.30
2022-11-15T14:13:03.803Z,39.45
2022-11-15T14:15:34.222Z,51.58
2022-11-15T14:18:04.768Z,68.22
2022-11-15T14:20:39.130Z,49.97
2022-11-15T14:23:27.707Z,46.60
2022-11-15T14:25:58.153Z,79.70
2022-11-15T14:28:31.151Z,43.97
2022-11-15T14:30:59.848Z,36.63
2022-11-15T14:33:35.110Z,38.38
2022-11-15T14:36:07.312Z,27.95
2022-11-15T15:28:33.104Z,30.35
2022-11-15T15:31:40.976Z,23.70
2022-11-15T15:34:18.442Z,35.38
2022-11-15T15:36:53.376Z,32.25
2022-11-15T15:39:59.697Z,41.85
2022-11-15T15:42:45.459Z,49.38
2022-11-15T15:45:28.171Z,64.82
2022-11-15T15:48:01.939Z,51.58
2022-11-15T15:50:38.020Z,82.72
2022-11-15T15:53:12.749Z,42.90
2022-11-15T15:56:13.531Z,37.33
2022-11-15T15:58:55.016Z,39.25
2022-11-15T16:01:28.537Z,37.92
2022-11-15T16:04:02.647Z,43.78
2022-11-15T16:06:41.162Z,58.88
2022-11-15T16:11:56.050Z,95.22
2022-11-15T16:14:28.169Z,47.28
2022-11-15T16:17:11.915Z,32.90
2022-11-15T16:19:55.531Z,31.27
2022-11-15T16:22:33.625Z,37.50
2022-11-15T16:25:05.477Z,30.85
2022-11-15T16:27:50.132Z,43.25
2022-11-15T16:30:44.442Z,28.73
2022-11-15T16:33:38.244Z,30.60
2022-11-15T16:36:38.553Z,30.92
2022-11-15T16:39:48.635Z,21.60
2022-11-15T16:46:26.353Z,36.85
2022-11-15T16:50:10.082Z,28.17
2022-11-15T16:56:45.527Z,32.15
2022-11-15T16:59:27.283Z,60.10
2022-11-15T17:02:39.601Z,27.10
2022-11-15T17:05:46.338Z,28.88
2022-11-15T17:08:44.902Z,32.85
2022-11-15T17:11:25.453Z,39.30
2022-11-15T17:14:04.708Z,34.00
2022-11-15T17:16:49.270Z,36.60
2022-11-15T17:19:29.565Z,45.83
2022-11-15T17:22:02.930Z,22.45
2022-11-15T17:24:43.151Z,37.00
2022-11-15T17:27:19.226Z,54.28
2022-11-15T17:29:56.019Z,41.83
2022-11-15T17:32:45.668Z,52.28
2022-11-15T17:35:35.572Z,234.68
2022-11-15T17:38:22.046Z,64.78
2022-11-15T17:41:16.049Z,58.28
2022-11-15T17:44:07.938Z,48.00
2022-11-15T17:47:28.462Z,32.47
2022-11-15T17:50:09.991Z,24.58
2022-11-15T17:52:57.798Z,26.65
2022-11-15T17:55:45.225Z,33.17
2022-11-15T17:58:28.216Z,103.72
2022-11-15T18:01:20.309Z,108.00
2022-11-15T18:03:54.201Z,74.97
2022-11-15T18:06:24.943Z,50.85
2022-11-15T18:09:10.183Z,32.33
2022-11-15T18:11:50.834Z,35.15
2022-11-15T18:14:44.341Z,27.52
2022-11-15T18:17:14.772Z,25.58
2022-11-15T18:19:42.774Z,24.50
2022-11-15T18:22:12.890Z,20.52
2022-11-15T18:24:54.973Z,25.05
2022-11-15T18:27:26.937Z,26.38
2022-11-15T18:30:01.868Z,24.50
2022-11-15T18:32:31.521Z,26.80
2022-11-15T18:35:00.079Z,22.02
2022-11-15T18:37:33.752Z,23.65
2022-11-15T18:40:02.270Z,24.57
2022-11-15T18:42:33.204Z,25.27
2022-11-15T18:45:05.378Z,24.70
2022-11-15T18:47:38.059Z,25.75
2022-11-15T18:50:07.889Z,25.58
2022-11-15T18:52:39.248Z,21.75
2022-11-15T18:55:10.719Z,24.73
2022-11-15T18:57:39.165Z,24.65
2022-11-15T19:00:10.676Z,32.20
2022-11-15T19:02:39.804Z,25.17
2022-11-15T19:05:16.018Z,24.98
2022-11-15T19:07:45.000Z,22.10
2022-11-15T19:10:27.011Z,23.90
2022-11-15T19:13:41.581Z,24.98
2022-11-15T19:16:35.419Z,24.90
2022-11-15T19:19:10.597Z,25.27
2022-11-15T19:21:39.659Z,22.77
2022-11-15T19:24:10.975Z,22.20
2022-11-15T19:26:43.935Z,24.15
2022-11-15T19:29:18.596Z,23.38
2022-11-15T19:31:53.149Z,26.65
2022-11-15T19:34:26.502Z,23.10
2022-11-15T19:36:54.964Z,23.50
2022-11-15T19:39:23.344Z,29.05
2022-11-15T19:41:57.716Z,26.38
2022-11-15T19:44:41.240Z,22.80
2022-11-15T19:48:26.007Z,20.80
2022-11-15T19:50:30.858Z,19.20
2022-11-15T19:53:33.321Z,20.48
2022-11-15T19:56:12.149Z,24.48
2022-11-15T19:58:44.772Z,28.88
2022-11-15T20:04:32.060Z,20.63
2022-11-15T20:07:11.952Z,23.10
2022-11-15T20:09:45.443Z,24.67
2022-11-15T20:12:31.548Z,25.77
2022-11-15T20:15:08.685Z,28.15
2022-11-15T20:17:39.713Z,22.33
2022-11-15T20:20:12.360Z,24.70
2022-11-15T20:22:44.061Z,24.35
2022-11-15T20:25:13.679Z,22.23
2022-11-15T20:27:41.791Z,26.52
2022-11-15T20:30:10.711Z,20.08
2022-11-15T20:32:45.233Z,22.63
2022-11-15T20:35:40.886Z,21.95
2022-11-15T20:38:09.852Z,21.40
2022-11-15T20:40:41.808Z,20.60
2022-11-15T20:43:14.528Z,24.08
2022-11-15T20:45:54.658Z,22.08
2022-11-15T20:49:01.489Z,25.02
2022-11-15T20:51:30.055Z,23.90
2022-11-15T20:54:01.729Z,20.75
2022-11-15T20:56:29.944Z,18.30
2022-11-15T20:58:58.013Z,18.25
2022-11-15T21:01:27.486Z,23.33
2022-11-15T21:03:56.310Z,18.55
2022-11-15T21:06:25.873Z,21.85
2022-11-15T21:09:13.160Z,20.75
2022-11-15T21:11:59.979Z,23.52
2022-11-15T21:14:40.988Z,16.63
2022-11-15T21:17:15.166Z,20.27
2022-11-15T21:19:43.909Z,22.98
2022-11-15T21:22:13.354Z,21.02
2022-11-15T21:24:41.647Z,19.13
2022-11-15T21:27:09.914Z,21.10
2022-11-15T21:29:50.281Z,22.67
2022-11-15T21:32:20.990Z,20.73
2022-11-15T21:34:51.859Z,21.30
2022-11-15T21:37:19.915Z,20.45
2022-11-15T21:39:47.822Z,16.30
2022-11-15T21:42:18.419Z,19.98
2022-11-15T21:44:49.391Z,23.67
2022-11-15T21:47:17.771Z,24.83
2022-11-15T21:49:46.045Z,22.02
2022-11-15T21:52:17.245Z,21.80
2022-11-15T21:57:32.826Z,22.50
2022-11-15T22:00:26.222Z,22.40
2022-11-15T22:02:54.793Z,23.45
2022-11-15T22:05:22.743Z,21.83
2022-11-15T22:07:50.837Z,22.17
2022-11-15T22:10:38.164Z,18.42
2022-11-15T22:13:10.158Z,22.52
2022-11-15T22:15:38.700Z,24.23
2022-11-15T22:18:09.440Z,21.33
2022-11-15T22:20:44.899Z,22.13
2022-11-15T22:23:13.311Z,22.38
2022-11-15T22:25:41.853Z,25.67
2022-11-15T22:28:09.905Z,24.20
2022-11-15T22:30:38.551Z,25.58
2022-11-15T22:33:07.541Z,22.38
2022-11-15T22:35:43.420Z,24.27
2022-11-15T22:38:11.811Z,21.98
2022-11-15T22:40:40.107Z,21.90
2022-11-15T22:43:17.401Z,21.70
2022-11-15T22:45:52.601Z,18.60
2022-11-15T22:48:21.847Z,25.73
2022-11-15T22:50:56.217Z,18.23
2022-11-15T22:53:24.856Z,21.17
2022-11-15T22:55:59.758Z,18.48
2022-11-15T22:58:40.941Z,22.30
2022-11-15T23:03:44.169Z,23.75
2022-11-15T23:06:15.315Z,24.77
2022-11-15T23:08:47.549Z,20.45
2022-11-15T23:11:41.703Z,28.00
2022-11-15T23:14:13.543Z,26.42
2022-11-15T23:16:41.575Z,26.63
2022-11-15T23:19:11.009Z,27.48
2022-11-15T23:22:04.407Z,23.92
2022-11-15T23:24:39.429Z,26.67
2022-11-15T23:27:08.126Z,25.58
2022-11-15T23:29:58.559Z,24.30
2022-11-15T23:32:52.772Z,23.70
2022-11-15T23:35:24.183Z,22.35
2022-11-15T23:37:52.293Z,24.33
2022-11-15T23:40:20.951Z,25.88
2022-11-15T23:42:54.833Z,23.27
2022-11-15T23:45:24.246Z,27.25
2022-11-15T23:47:58.371Z,28.63
2022-11-15T23:50:29.549Z,24.35
2022-11-15T23:52:58.568Z,25.05
2022-11-15T23:55:26.970Z,20.77
2022-11-15T23:57:55.094Z,19.40
